sensor_id;sensor_type;location;lat;lon;timestamp;P1;durP1;ratioP1;P2;durP2;ratioP2
73980;SDS011;62348;51.412;5.436;2023-09-18T00:02:06;14.95;;;12.52;;
73980;SDS011;62348;51.412;5.436;2023-09-18T00:04:31;14.98;;;12.15;;
73980;SDS011;62348;51.412;5.436;2023-09-18T00:06:57;15.90;;;12.57;;
73980;SDS011;62348;51.412;5.436;2023-09-18T00:09:22;16.73;;;13.43;;
73980;SDS011;62348;51.412;5.436;2023-09-18T00:11:47;14.88;;;13.35;;
73980;SDS011;62348;51.412;5.436;2023-09-18T00:14:13;15.73;;;13.25;;
73980;SDS011;62348;51.412;5.436;2023-09-18T00:16:38;13.88;;;12.40;;
73980;SDS011;62348;51.412;5.436;2023-09-18T00:19:04;14.45;;;12.63;;
73980;SDS011;62348;51.412;5.436;2023-09-18T00:21:31;18.90;;;13.13;;
73980;SDS011;62348;51.412;5.436;2023-09-18T00:23:57;14.60;;;13.02;;
73980;SDS011;62348;51.412;5.436;2023-09-18T00:26:25;14.38;;;12.52;;
73980;SDS011;62348;51.412;5.436;2023-09-18T00:28:50;16.05;;;14.07;;
73980;SDS011;62348;51.412;5.436;2023-09-18T00:31:16;14.30;;;12.80;;
73980;SDS011;62348;51.412;5.436;2023-09-18T00:33:41;15.18;;;13.40;;
73980;SDS011;62348;51.412;5.436;2023-09-18T00:36:07;15.60;;;13.93;;
73980;SDS011;62348;51.412;5.436;2023-09-18T00:38:32;14.85;;;13.30;;
73980;SDS011;62348;51.412;5.436;2023-09-18T00:40:58;15.30;;;13.38;;
73980;SDS011;62348;51.412;5.436;2023-09-18T00:43:23;16.60;;;12.98;;
73980;SDS011;62348;51.412;5.436;2023-09-18T00:45:48;13.95;;;12.55;;
73980;SDS011;62348;51.412;5.436;2023-09-18T00:48:15;16.88;;;14.32;;
73980;SDS011;62348;51.412;5.436;2023-09-18T00:50:41;17.73;;;12.90;;
73980;SDS011;62348;51.412;5.436;2023-09-18T00:53:09;15.52;;;13.48;;
73980;SDS011;62348;51.412;5.436;2023-09-18T00:55:36;15.57;;;12.27;;
73980;SDS011;62348;51.412;5.436;2023-09-18T00:58:03;17.42;;;13.80;;
73980;SDS011;62348;51.412;5.436;2023-09-18T01:00:29;16.10;;;12.50;;
73980;SDS011;62348;51.412;5.436;2023-09-18T01:02:55;14.48;;;12.95;;
73980;SDS011;62348;51.412;5.436;2023-09-18T01:05:20;16.65;;;13.20;;
73980;SDS011;62348;51.412;5.436;2023-09-18T01:07:46;18.08;;;13.75;;
73980;SDS011;62348;51.412;5.436;2023-09-18T01:10:12;16.42;;;12.95;;
73980;SDS011;62348;51.412;5.436;2023-09-18T01:12:46;13.93;;;12.27;;
73980;SDS011;62348;51.412;5.436;2023-09-18T01:15:22;15.30;;;11.95;;
73980;SDS011;62348;51.412;5.436;2023-09-18T01:17:54;13.20;;;11.77;;
73980;SDS011;62348;51.412;5.436;2023-09-18T01:20:20;13.00;;;11.57;;
73980;SDS011;62348;51.412;5.436;2023-09-18T01:22:45;11.73;;;10.35;;
73980;SDS011;62348;51.412;5.436;2023-09-18T01:25:11;12.20;;;11.00;;
73980;SDS011;62348;51.412;5.436;2023-09-18T01:27:36;13.65;;;11.05;;
73980;SDS011;62348;51.412;5.436;2023-09-18T01:30:02;11.02;;;9.82;;
73980;SDS011;62348;51.412;5.436;2023-09-18T01:32:29;13.65;;;10.48;;
73980;SDS011;62348;51.412;5.436;2023-09-18T01:34:57;14.63;;;9.43;;
73980;SDS011;62348;51.412;5.436;2023-09-18T01:37:28;11.10;;;8.93;;
73980;SDS011;62348;51.412;5.436;2023-09-18T01:39:56;11.13;;;8.88;;
73980;SDS011;62348;51.412;5.436;2023-09-18T01:42:25;10.43;;;8.20;;
73980;SDS011;62348;51.412;5.436;2023-09-18T01:44:52;10.18;;;7.90;;
73980;SDS011;62348;51.412;5.436;2023-09-18T01:47:19;10.85;;;8.02;;
73980;SDS011;62348;51.412;5.436;2023-09-18T01:49:46;9.55;;;8.00;;
73980;SDS011;62348;51.412;5.436;2023-09-18T01:52:12;12.30;;;8.20;;
73980;SDS011;62348;51.412;5.436;2023-09-18T01:54:37;8.95;;;7.15;;
73980;SDS011;62348;51.412;5.436;2023-09-18T01:57:03;12.20;;;8.07;;
73980;SDS011;62348;51.412;5.436;2023-09-18T01:59:29;10.90;;;7.38;;
73980;SDS011;62348;51.412;5.436;2023-09-18T02:01:55;14.65;;;7.95;;
73980;SDS011;62348;51.412;5.436;2023-09-18T02:04:21;12.93;;;8.00;;
73980;SDS011;62348;51.412;5.436;2023-09-18T02:06:48;9.85;;;7.22;;
73980;SDS011;62348;51.412;5.436;2023-09-18T02:09:15;8.52;;;6.72;;
73980;SDS011;62348;51.412;5.436;2023-09-18T02:11:41;9.23;;;6.97;;
73980;SDS011;62348;51.412;5.436;2023-09-18T02:14:08;10.60;;;7.20;;
73980;SDS011;62348;51.412;5.436;2023-09-18T02:16:35;12.20;;;7.10;;
73980;SDS011;62348;51.412;5.436;2023-09-18T02:19:02;11.52;;;7.47;;
73980;SDS011;62348;51.412;5.436;2023-09-18T02:21:28;11.68;;;7.43;;
73980;SDS011;62348;51.412;5.436;2023-09-18T02:23:54;11.48;;;7.85;;
73980;SDS011;62348;51.412;5.436;2023-09-18T02:26:20;9.27;;;8.00;;
73980;SDS011;62348;51.412;5.436;2023-09-18T02:28:46;9.63;;;7.43;;
73980;SDS011;62348;51.412;5.436;2023-09-18T02:31:12;11.60;;;7.38;;
73980;SDS011;62348;51.412;5.436;2023-09-18T02:33:38;10.32;;;6.93;;
73980;SDS011;62348;51.412;5.436;2023-09-18T02:36:05;12.90;;;7.10;;
73980;SDS011;62348;51.412;5.436;2023-09-18T02:38:30;14.60;;;7.78;;
73980;SDS011;62348;51.412;5.436;2023-09-18T02:40:57;8.85;;;7.45;;
73980;SDS011;62348;51.412;5.436;2023-09-18T02:43:23;11.65;;;7.78;;
73980;SDS011;62348;51.412;5.436;2023-09-18T02:45:49;11.77;;;9.00;;
73980;SDS011;62348;51.412;5.436;2023-09-18T02:48:15;12.55;;;8.32;;
73980;SDS011;62348;51.412;5.436;2023-09-18T02:50:41;12.40;;;8.07;;
73980;SDS011;62348;51.412;5.436;2023-09-18T02:53:06;14.20;;;8.75;;
73980;SDS011;62348;51.412;5.436;2023-09-18T02:55:36;13.85;;;7.95;;
73980;SDS011;62348;51.412;5.436;2023-09-18T02:58:01;11.20;;;7.97;;
73980;SDS011;62348;51.412;5.436;2023-09-18T03:00:27;12.73;;;8.77;;
73980;SDS011;62348;51.412;5.436;2023-09-18T03:02:52;12.00;;;8.13;;
73980;SDS011;62348;51.412;5.436;2023-09-18T03:05:18;12.98;;;8.13;;
73980;SDS011;62348;51.412;5.436;2023-09-18T03:07:43;9.30;;;8.13;;
73980;SDS011;62348;51.412;5.436;2023-09-18T03:10:09;9.00;;;7.70;;
73980;SDS011;62348;51.412;5.436;2023-09-18T03:12:39;11.90;;;8.48;;
73980;SDS011;62348;51.412;5.436;2023-09-18T03:15:04;11.13;;;8.35;;
73980;SDS011;62348;51.412;5.436;2023-09-18T03:17:31;11.07;;;7.60;;
73980;SDS011;62348;51.412;5.436;2023-09-18T03:19:57;14.00;;;7.32;;
73980;SDS011;62348;51.412;5.436;2023-09-18T03:22:22;16.95;;;8.55;;
73980;SDS011;62348;51.412;5.436;2023-09-18T03:24:47;12.55;;;8.13;;
73980;SDS011;62348;51.412;5.436;2023-09-18T03:27:13;11.27;;;8.02;;
73980;SDS011;62348;51.412;5.436;2023-09-18T03:29:38;12.65;;;8.68;;
73980;SDS011;62348;51.412;5.436;2023-09-18T03:32:04;11.65;;;8.50;;
73980;SDS011;62348;51.412;5.436;2023-09-18T03:34:29;11.18;;;8.35;;
73980;SDS011;62348;51.412;5.436;2023-09-18T03:36:55;16.55;;;8.30;;
73980;SDS011;62348;51.412;5.436;2023-09-18T03:39:20;13.73;;;8.10;;
73980;SDS011;62348;51.412;5.436;2023-09-18T03:41:46;15.18;;;7.82;;
73980;SDS011;62348;51.412;5.436;2023-09-18T03:44:11;13.75;;;8.07;;
73980;SDS011;62348;51.412;5.436;2023-09-18T03:46:37;14.52;;;7.18;;
73980;SDS011;62348;51.412;5.436;2023-09-18T03:49:02;14.23;;;7.43;;
73980;SDS011;62348;51.412;5.436;2023-09-18T03:51:28;14.57;;;7.57;;
73980;SDS011;62348;51.412;5.436;2023-09-18T03:53:54;15.10;;;8.52;;
73980;SDS011;62348;51.412;5.436;2023-09-18T03:56:20;13.43;;;8.63;;
73980;SDS011;62348;51.412;5.436;2023-09-18T03:58:47;16.20;;;8.48;;
73980;SDS011;62348;51.412;5.436;2023-09-18T04:01:14;13.52;;;8.18;;
73980;SDS011;62348;51.412;5.436;2023-09-18T04:03:40;11.90;;;8.82;;
73980;SDS011;62348;51.412;5.436;2023-09-18T04:06:06;13.70;;;8.10;;
73980;SDS011;62348;51.412;5.436;2023-09-18T04:08:32;13.77;;;9.05;;
73980;SDS011;62348;51.412;5.436;2023-09-18T04:10:57;14.10;;;8.63;;
73980;SDS011;62348;51.412;5.436;2023-09-18T04:13:23;12.75;;;8.75;;
73980;SDS011;62348;51.412;5.436;2023-09-18T04:15:49;10.98;;;8.25;;
73980;SDS011;62348;51.412;5.436;2023-09-18T04:18:14;14.60;;;8.90;;
73980;SDS011;62348;51.412;5.436;2023-09-18T04:20:39;14.95;;;8.95;;
73980;SDS011;62348;51.412;5.436;2023-09-18T04:26:02;11.77;;;8.30;;
73980;SDS011;62348;51.412;5.436;2023-09-18T04:28:28;16.00;;;9.00;;
73980;SDS011;62348;51.412;5.436;2023-09-18T04:30:53;13.60;;;8.15;;
73980;SDS011;62348;51.412;5.436;2023-09-18T04:33:18;12.75;;;8.80;;
73980;SDS011;62348;51.412;5.436;2023-09-18T04:35:44;11.00;;;9.40;;
73980;SDS011;62348;51.412;5.436;2023-09-18T04:38:09;13.23;;;8.02;;
73980;SDS011;62348;51.412;5.436;2023-09-18T04:40:40;10.55;;;7.43;;
73980;SDS011;62348;51.412;5.436;2023-09-18T04:43:05;10.48;;;6.97;;
73980;SDS011;62348;51.412;5.436;2023-09-18T04:45:31;9.40;;;6.95;;
73980;SDS011;62348;51.412;5.436;2023-09-18T04:47:57;8.30;;;5.57;;
73980;SDS011;62348;51.412;5.436;2023-09-18T04:50:22;6.93;;;5.45;;
73980;SDS011;62348;51.412;5.436;2023-09-18T04:52:48;5.60;;;4.68;;
73980;SDS011;62348;51.412;5.436;2023-09-18T04:55:15;6.43;;;5.03;;
73980;SDS011;62348;51.412;5.436;2023-09-18T04:57:41;8.57;;;4.93;;
73980;SDS011;62348;51.412;5.436;2023-09-18T05:00:06;8.18;;;4.57;;
73980;SDS011;62348;51.412;5.436;2023-09-18T05:02:38;8.55;;;4.32;;
73980;SDS011;62348;51.412;5.436;2023-09-18T05:05:04;4.82;;;3.80;;
73980;SDS011;62348;51.412;5.436;2023-09-18T05:07:29;5.60;;;4.57;;
73980;SDS011;62348;51.412;5.436;2023-09-18T05:09:55;5.20;;;3.60;;
73980;SDS011;62348;51.412;5.436;2023-09-18T05:12:21;6.13;;;3.40;;
73980;SDS011;62348;51.412;5.436;2023-09-18T05:14:47;7.22;;;3.53;;
73980;SDS011;62348;51.412;5.436;2023-09-18T05:17:14;5.18;;;3.58;;
73980;SDS011;62348;51.412;5.436;2023-09-18T05:19:40;5.07;;;3.20;;
73980;SDS011;62348;51.412;5.436;2023-09-18T05:22:07;6.38;;;3.78;;
73980;SDS011;62348;51.412;5.436;2023-09-18T05:24:33;6.10;;;3.85;;
73980;SDS011;62348;51.412;5.436;2023-09-18T05:26:58;7.63;;;3.88;;
73980;SDS011;62348;51.412;5.436;2023-09-18T05:29:24;8.20;;;4.25;;
73980;SDS011;62348;51.412;5.436;2023-09-18T05:31:49;3.83;;;2.72;;
73980;SDS011;62348;51.412;5.436;2023-09-18T05:34:15;7.53;;;3.03;;
73980;SDS011;62348;51.412;5.436;2023-09-18T05:36:40;6.05;;;3.17;;
73980;SDS011;62348;51.412;5.436;2023-09-18T05:39:06;4.55;;;3.00;;
73980;SDS011;62348;51.412;5.436;2023-09-18T05:41:36;5.60;;;2.80;;
73980;SDS011;62348;51.412;5.436;2023-09-18T05:44:02;5.90;;;2.95;;
73980;SDS011;62348;51.412;5.436;2023-09-18T05:46:30;5.38;;;2.53;;
73980;SDS011;62348;51.412;5.436;2023-09-18T05:48:55;3.88;;;2.90;;
73980;SDS011;62348;51.412;5.436;2023-09-18T05:51:22;4.15;;;2.60;;
73980;SDS011;62348;51.412;5.436;2023-09-18T05:53:47;5.53;;;2.20;;
73980;SDS011;62348;51.412;5.436;2023-09-18T05:56:13;4.85;;;2.95;;
73980;SDS011;62348;51.412;5.436;2023-09-18T05:58:39;4.47;;;2.33;;
73980;SDS011;62348;51.412;5.436;2023-09-18T06:01:06;4.15;;;2.58;;
73980;SDS011;62348;51.412;5.436;2023-09-18T06:03:32;6.30;;;2.22;;
73980;SDS011;62348;51.412;5.436;2023-09-18T06:06:01;4.95;;;2.13;;
73980;SDS011;62348;51.412;5.436;2023-09-18T06:08:27;2.63;;;2.28;;
73980;SDS011;62348;51.412;5.436;2023-09-18T06:10:53;4.68;;;2.20;;
73980;SDS011;62348;51.412;5.436;2023-09-18T06:13:21;5.25;;;2.28;;
73980;SDS011;62348;51.412;5.436;2023-09-18T06:15:47;4.38;;;2.35;;
73980;SDS011;62348;51.412;5.436;2023-09-18T06:18:13;3.58;;;2.13;;
73980;SDS011;62348;51.412;5.436;2023-09-18T06:20:38;5.22;;;2.15;;
73980;SDS011;62348;51.412;5.436;2023-09-18T06:23:04;2.85;;;2.22;;
73980;SDS011;62348;51.412;5.436;2023-09-18T06:25:30;4.50;;;2.30;;
73980;SDS011;62348;51.412;5.436;2023-09-18T06:27:56;4.07;;;2.90;;
73980;SDS011;62348;51.412;5.436;2023-09-18T06:30:22;4.63;;;1.95;;
73980;SDS011;62348;51.412;5.436;2023-09-18T06:32:47;4.88;;;1.90;;
73980;SDS011;62348;51.412;5.436;2023-09-18T06:35:13;2.90;;;1.80;;
73980;SDS011;62348;51.412;5.436;2023-09-18T06:37:38;3.38;;;2.17;;
73980;SDS011;62348;51.412;5.436;2023-09-18T06:40:04;5.70;;;2.40;;
73980;SDS011;62348;51.412;5.436;2023-09-18T06:42:30;4.93;;;2.30;;
73980;SDS011;62348;51.412;5.436;2023-09-18T06:44:56;5.85;;;2.05;;
73980;SDS011;62348;51.412;5.436;2023-09-18T06:47:22;3.38;;;1.90;;
73980;SDS011;62348;51.412;5.436;2023-09-18T06:49:49;2.17;;;1.70;;
73980;SDS011;62348;51.412;5.436;2023-09-18T06:52:14;3.55;;;2.10;;
73980;SDS011;62348;51.412;5.436;2023-09-18T06:54:40;3.95;;;1.65;;
73980;SDS011;62348;51.412;5.436;2023-09-18T06:57:06;3.97;;;1.92;;
73980;SDS011;62348;51.412;5.436;2023-09-18T06:59:31;3.13;;;2.08;;
73980;SDS011;62348;51.412;5.436;2023-09-18T07:01:58;2.70;;;1.70;;
73980;SDS011;62348;51.412;5.436;2023-09-18T07:04:25;3.10;;;2.10;;
73980;SDS011;62348;51.412;5.436;2023-09-18T07:06:50;3.22;;;1.40;;
73980;SDS011;62348;51.412;5.436;2023-09-18T07:09:18;3.22;;;1.60;;
73980;SDS011;62348;51.412;5.436;2023-09-18T07:11:44;6.60;;;2.55;;
73980;SDS011;62348;51.412;5.436;2023-09-18T07:14:10;5.25;;;2.00;;
73980;SDS011;62348;51.412;5.436;2023-09-18T07:16:35;5.30;;;2.10;;
73980;SDS011;62348;51.412;5.436;2023-09-18T07:19:01;3.10;;;1.65;;
73980;SDS011;62348;51.412;5.436;2023-09-18T07:21:30;3.78;;;2.38;;
73980;SDS011;62348;51.412;5.436;2023-09-18T07:23:55;4.13;;;1.90;;
73980;SDS011;62348;51.412;5.436;2023-09-18T07:26:21;3.55;;;1.92;;
73980;SDS011;62348;51.412;5.436;2023-09-18T07:28:46;3.28;;;1.77;;
73980;SDS011;62348;51.412;5.436;2023-09-18T07:31:12;4.03;;;1.75;;
73980;SDS011;62348;51.412;5.436;2023-09-18T07:33:39;3.50;;;1.90;;
73980;SDS011;62348;51.412;5.436;2023-09-18T07:36:05;5.72;;;1.73;;
73980;SDS011;62348;51.412;5.436;2023-09-18T07:38:31;7.55;;;1.85;;
73980;SDS011;62348;51.412;5.436;2023-09-18T07:40:56;5.57;;;1.98;;
73980;SDS011;62348;51.412;5.436;2023-09-18T07:43:23;4.93;;;1.60;;
73980;SDS011;62348;51.412;5.436;2023-09-18T07:45:50;4.53;;;1.98;;
73980;SDS011;62348;51.412;5.436;2023-09-18T07:48:15;3.42;;;2.15;;
73980;SDS011;62348;51.412;5.436;2023-09-18T07:50:44;3.53;;;1.88;;
73980;SDS011;62348;51.412;5.436;2023-09-18T07:53:10;3.53;;;1.83;;
73980;SDS011;62348;51.412;5.436;2023-09-18T07:55:36;3.65;;;1.63;;
73980;SDS011;62348;51.412;5.436;2023-09-18T07:58:01;4.57;;;1.83;;
73980;SDS011;62348;51.412;5.436;2023-09-18T08:00:28;6.82;;;1.92;;
73980;SDS011;62348;51.412;5.436;2023-09-18T08:02:54;4.22;;;2.38;;
73980;SDS011;62348;51.412;5.436;2023-09-18T08:05:25;3.88;;;1.70;;
73980;SDS011;62348;51.412;5.436;2023-09-18T08:07:55;4.05;;;1.88;;
73980;SDS011;62348;51.412;5.436;2023-09-18T08:10:24;3.97;;;1.60;;
73980;SDS011;62348;51.412;5.436;2023-09-18T08:12:50;2.28;;;1.60;;
73980;SDS011;62348;51.412;5.436;2023-09-18T08:15:18;5.05;;;1.80;;
73980;SDS011;62348;51.412;5.436;2023-09-18T08:17:46;3.72;;;1.73;;
73980;SDS011;62348;51.412;5.436;2023-09-18T08:20:13;4.55;;;1.75;;
73980;SDS011;62348;51.412;5.436;2023-09-18T08:22:40;5.15;;;1.70;;
73980;SDS011;62348;51.412;5.436;2023-09-18T08:25:07;4.80;;;1.73;;
73980;SDS011;62348;51.412;5.436;2023-09-18T08:27:39;2.25;;;1.58;;
73980;SDS011;62348;51.412;5.436;2023-09-18T08:30:09;7.07;;;2.63;;
73980;SDS011;62348;51.412;5.436;2023-09-18T08:32:38;3.45;;;1.67;;
73980;SDS011;62348;51.412;5.436;2023-09-18T08:35:05;4.50;;;2.53;;
73980;SDS011;62348;51.412;5.436;2023-09-18T08:37:31;5.40;;;2.22;;
73980;SDS011;62348;51.412;5.436;2023-09-18T08:39:56;4.25;;;2.00;;
73980;SDS011;62348;51.412;5.436;2023-09-18T08:42:22;3.00;;;1.98;;
73980;SDS011;62348;51.412;5.436;2023-09-18T08:44:50;6.88;;;2.10;;
73980;SDS011;62348;51.412;5.436;2023-09-18T08:47:19;3.17;;;2.45;;
73980;SDS011;62348;51.412;5.436;2023-09-18T08:49:48;3.55;;;2.13;;
73980;SDS011;62348;51.412;5.436;2023-09-18T08:52:15;7.70;;;2.70;;
73980;SDS011;62348;51.412;5.436;2023-09-18T08:54:42;7.07;;;2.10;;
73980;SDS011;62348;51.412;5.436;2023-09-18T08:57:09;6.38;;;2.15;;
73980;SDS011;62348;51.412;5.436;2023-09-18T08:59:35;6.88;;;2.20;;
73980;SDS011;62348;51.412;5.436;2023-09-18T09:02:01;5.50;;;2.20;;
73980;SDS011;62348;51.412;5.436;2023-09-18T09:04:27;5.53;;;2.55;;
73980;SDS011;62348;51.412;5.436;2023-09-18T09:06:53;4.25;;;2.40;;
73980;SDS011;62348;51.412;5.436;2023-09-18T09:09:22;6.72;;;3.00;;
73980;SDS011;62348;51.412;5.436;2023-09-18T09:11:49;6.35;;;2.50;;
73980;SDS011;62348;51.412;5.436;2023-09-18T09:14:15;6.80;;;2.78;;
73980;SDS011;62348;51.412;5.436;2023-09-18T09:16:46;7.95;;;2.40;;
73980;SDS011;62348;51.412;5.436;2023-09-18T09:19:16;5.85;;;2.22;;
73980;SDS011;62348;51.412;5.436;2023-09-18T09:21:42;5.82;;;2.35;;
73980;SDS011;62348;51.412;5.436;2023-09-18T09:24:09;6.85;;;2.53;;
73980;SDS011;62348;51.412;5.436;2023-09-18T09:26:42;10.18;;;2.30;;
73980;SDS011;62348;51.412;5.436;2023-09-18T09:29:14;4.32;;;2.05;;
73980;SDS011;62348;51.412;5.436;2023-09-18T09:31:43;6.38;;;2.30;;
73980;SDS011;62348;51.412;5.436;2023-09-18T09:34:09;4.55;;;2.15;;
73980;SDS011;62348;51.412;5.436;2023-09-18T09:36:35;6.15;;;2.53;;
73980;SDS011;62348;51.412;5.436;2023-09-18T09:39:00;5.57;;;2.40;;
73980;SDS011;62348;51.412;5.436;2023-09-18T09:41:27;4.45;;;2.28;;
73980;SDS011;62348;51.412;5.436;2023-09-18T09:43:53;5.97;;;2.65;;
73980;SDS011;62348;51.412;5.436;2023-09-18T09:46:20;5.07;;;2.00;;
73980;SDS011;62348;51.412;5.436;2023-09-18T09:49:03;3.00;;;2.00;;
73980;SDS011;62348;51.412;5.436;2023-09-18T09:51:30;6.57;;;2.53;;
73980;SDS011;62348;51.412;5.436;2023-09-18T09:53:56;2.95;;;2.00;;
73980;SDS011;62348;51.412;5.436;2023-09-18T09:56:47;2.60;;;1.88;;
73980;SDS011;62348;51.412;5.436;2023-09-18T09:59:15;7.47;;;2.25;;
73980;SDS011;62348;51.412;5.436;2023-09-18T10:01:43;5.65;;;2.38;;
73980;SDS011;62348;51.412;5.436;2023-09-18T10:07:24;5.70;;;2.38;;
73980;SDS011;62348;51.412;5.436;2023-09-18T10:09:32;4.18;;;2.38;;
73980;SDS011;62348;51.412;5.436;2023-09-18T10:12:00;3.95;;;2.40;;
73980;SDS011;62348;51.412;5.436;2023-09-18T10:14:30;7.40;;;2.33;;
73980;SDS011;62348;51.412;5.436;2023-09-18T10:16:59;6.80;;;2.35;;
73980;SDS011;62348;51.412;5.436;2023-09-18T10:19:40;6.35;;;2.65;;
73980;SDS011;62348;51.412;5.436;2023-09-18T10:22:14;7.30;;;2.50;;
73980;SDS011;62348;51.412;5.436;2023-09-18T10:24:46;3.08;;;2.40;;
73980;SDS011;62348;51.412;5.436;2023-09-18T10:27:14;5.68;;;2.08;;
73980;SDS011;62348;51.412;5.436;2023-09-18T10:29:42;8.32;;;2.50;;
73980;SDS011;62348;51.412;5.436;2023-09-18T10:32:12;3.33;;;2.40;;
73980;SDS011;62348;51.412;5.436;2023-09-18T10:34:38;7.05;;;2.70;;
73980;SDS011;62348;51.412;5.436;2023-09-18T10:37:06;6.00;;;2.78;;
73980;SDS011;62348;51.412;5.436;2023-09-18T10:39:37;4.40;;;2.67;;
73980;SDS011;62348;51.412;5.436;2023-09-18T10:42:07;5.55;;;2.65;;
73980;SDS011;62348;51.412;5.436;2023-09-18T10:44:34;3.70;;;2.60;;
73980;SDS011;62348;51.412;5.436;2023-09-18T10:47:00;7.22;;;2.78;;
73980;SDS011;62348;51.412;5.436;2023-09-18T10:49:30;6.03;;;2.75;;
73980;SDS011;62348;51.412;5.436;2023-09-18T10:51:56;4.65;;;2.90;;
73980;SDS011;62348;51.412;5.436;2023-09-18T10:54:23;6.53;;;2.75;;
73980;SDS011;62348;51.412;5.436;2023-09-18T10:56:50;8.27;;;2.90;;
73980;SDS011;62348;51.412;5.436;2023-09-18T10:59:17;4.15;;;2.70;;
73980;SDS011;62348;51.412;5.436;2023-09-18T11:01:43;5.35;;;2.95;;
73980;SDS011;62348;51.412;5.436;2023-09-18T11:04:10;4.32;;;2.60;;
73980;SDS011;62348;51.412;5.436;2023-09-18T11:09:29;7.45;;;3.33;;
73980;SDS011;62348;51.412;5.436;2023-09-18T11:25:29;6.35;;;3.10;;
73980;SDS011;62348;51.412;5.436;2023-09-18T11:28:01;5.45;;;2.63;;
73980;SDS011;62348;51.412;5.436;2023-09-18T11:30:28;6.03;;;3.90;;
73980;SDS011;62348;51.412;5.436;2023-09-18T11:32:54;5.35;;;2.83;;
73980;SDS011;62348;51.412;5.436;2023-09-18T11:35:20;6.20;;;2.70;;
73980;SDS011;62348;51.412;5.436;2023-09-18T11:37:47;4.82;;;2.78;;
73980;SDS011;62348;51.412;5.436;2023-09-18T11:40:32;7.13;;;2.97;;
73980;SDS011;62348;51.412;5.436;2023-09-18T11:43:22;4.13;;;2.42;;
73980;SDS011;62348;51.412;5.436;2023-09-18T11:45:58;7.05;;;2.67;;
73980;SDS011;62348;51.412;5.436;2023-09-18T11:48:25;6.90;;;2.72;;
73980;SDS011;62348;51.412;5.436;2023-09-18T11:50:57;6.80;;;3.00;;
73980;SDS011;62348;51.412;5.436;2023-09-18T11:53:24;4.40;;;2.40;;
73980;SDS011;62348;51.412;5.436;2023-09-18T11:55:52;4.35;;;2.40;;
73980;SDS011;62348;51.412;5.436;2023-09-18T11:58:18;4.82;;;2.13;;
73980;SDS011;62348;51.412;5.436;2023-09-18T12:00:48;5.50;;;2.33;;
73980;SDS011;62348;51.412;5.436;2023-09-18T12:03:18;6.32;;;2.20;;
73980;SDS011;62348;51.412;5.436;2023-09-18T12:05:54;3.38;;;2.30;;
73980;SDS011;62348;51.412;5.436;2023-09-18T12:08:22;4.15;;;2.75;;
73980;SDS011;62348;51.412;5.436;2023-09-18T12:10:49;8.10;;;2.45;;
73980;SDS011;62348;51.412;5.436;2023-09-18T12:13:15;4.43;;;2.00;;
73980;SDS011;62348;51.412;5.436;2023-09-18T12:15:41;5.30;;;2.05;;
73980;SDS011;62348;51.412;5.436;2023-09-18T12:18:09;3.50;;;2.30;;
73980;SDS011;62348;51.412;5.436;2023-09-18T12:20:37;3.58;;;2.25;;
73980;SDS011;62348;51.412;5.436;2023-09-18T12:23:03;7.07;;;2.13;;
73980;SDS011;62348;51.412;5.436;2023-09-18T12:25:29;5.05;;;2.25;;
73980;SDS011;62348;51.412;5.436;2023-09-18T12:27:54;6.10;;;2.10;;
73980;SDS011;62348;51.412;5.436;2023-09-18T12:30:21;4.63;;;2.70;;
73980;SDS011;62348;51.412;5.436;2023-09-18T12:32:47;5.18;;;2.33;;
73980;SDS011;62348;51.412;5.436;2023-09-18T12:35:14;3.13;;;2.47;;
73980;SDS011;62348;51.412;5.436;2023-09-18T12:37:40;4.30;;;2.30;;
73980;SDS011;62348;51.412;5.436;2023-09-18T12:40:06;3.13;;;2.22;;
73980;SDS011;62348;51.412;5.436;2023-09-18T12:42:45;3.50;;;2.35;;
73980;SDS011;62348;51.412;5.436;2023-09-18T12:45:11;4.53;;;2.30;;
73980;SDS011;62348;51.412;5.436;2023-09-18T12:47:37;4.82;;;2.38;;
73980;SDS011;62348;51.412;5.436;2023-09-18T12:50:04;5.63;;;2.97;;
73980;SDS011;62348;51.412;5.436;2023-09-18T12:52:31;3.22;;;2.45;;
73980;SDS011;62348;51.412;5.436;2023-09-18T12:54:58;6.78;;;2.83;;
73980;SDS011;62348;51.412;5.436;2023-09-18T12:57:24;4.88;;;2.92;;
73980;SDS011;62348;51.412;5.436;2023-09-18T12:59:50;4.55;;;3.03;;
73980;SDS011;62348;51.412;5.436;2023-09-18T13:02:17;4.60;;;2.38;;
73980;SDS011;62348;51.412;5.436;2023-09-18T13:04:53;5.38;;;2.63;;
73980;SDS011;62348;51.412;5.436;2023-09-18T13:07:22;3.45;;;2.70;;
73980;SDS011;62348;51.412;5.436;2023-09-18T13:10:02;6.28;;;3.40;;
73980;SDS011;62348;51.412;5.436;2023-09-18T13:17:53;7.38;;;3.75;;
73980;SDS011;62348;51.412;5.436;2023-09-18T13:20:23;3.88;;;2.85;;
73980;SDS011;62348;51.412;5.436;2023-09-18T13:25:34;4.35;;;2.60;;
73980;SDS011;62348;51.412;5.436;2023-09-18T13:28:03;5.57;;;2.30;;
73980;SDS011;62348;51.412;5.436;2023-09-18T13:30:30;8.60;;;3.05;;
73980;SDS011;62348;51.412;5.436;2023-09-18T13:33:02;6.15;;;2.92;;
73980;SDS011;62348;51.412;5.436;2023-09-18T13:35:31;6.05;;;2.50;;
73980;SDS011;62348;51.412;5.436;2023-09-18T13:37:57;3.22;;;2.45;;
73980;SDS011;62348;51.412;5.436;2023-09-18T13:40:22;3.35;;;2.10;;
73980;SDS011;62348;51.412;5.436;2023-09-18T13:42:48;4.10;;;2.38;;
73980;SDS011;62348;51.412;5.436;2023-09-18T13:45:16;2.38;;;2.03;;
73980;SDS011;62348;51.412;5.436;2023-09-18T13:47:42;3.05;;;2.40;;
73980;SDS011;62348;51.412;5.436;2023-09-18T13:50:08;3.88;;;2.30;;
73980;SDS011;62348;51.412;5.436;2023-09-18T13:52:35;3.97;;;2.10;;
73980;SDS011;62348;51.412;5.436;2023-09-18T13:55:02;4.00;;;2.17;;
73980;SDS011;62348;51.412;5.436;2023-09-18T13:57:30;3.92;;;2.10;;
73980;SDS011;62348;51.412;5.436;2023-09-18T13:59:56;5.22;;;2.50;;
73980;SDS011;62348;51.412;5.436;2023-09-18T14:02:22;3.17;;;1.80;;
73980;SDS011;62348;51.412;5.436;2023-09-18T14:04:52;5.78;;;2.00;;
73980;SDS011;62348;51.412;5.436;2023-09-18T14:07:17;4.40;;;2.00;;
73980;SDS011;62348;51.412;5.436;2023-09-18T14:09:42;3.35;;;1.80;;
73980;SDS011;62348;51.412;5.436;2023-09-18T14:12:08;3.42;;;1.90;;
73980;SDS011;62348;51.412;5.436;2023-09-18T14:14:33;3.20;;;1.95;;
73980;SDS011;62348;51.412;5.436;2023-09-18T14:17:00;1.85;;;1.67;;
73980;SDS011;62348;51.412;5.436;2023-09-18T14:19:26;4.03;;;2.00;;
73980;SDS011;62348;51.412;5.436;2023-09-18T14:21:51;3.95;;;1.65;;
73980;SDS011;62348;51.412;5.436;2023-09-18T14:24:17;3.08;;;1.67;;
73980;SDS011;62348;51.412;5.436;2023-09-18T14:26:47;3.55;;;1.75;;
73980;SDS011;62348;51.412;5.436;2023-09-18T14:29:14;1.77;;;1.50;;
73980;SDS011;62348;51.412;5.436;2023-09-18T14:31:39;3.63;;;2.05;;
73980;SDS011;62348;51.412;5.436;2023-09-18T14:34:05;5.15;;;1.75;;
73980;SDS011;62348;51.412;5.436;2023-09-18T14:36:34;6.47;;;2.10;;
73980;SDS011;62348;51.412;5.436;2023-09-18T14:39:04;5.65;;;1.98;;
73980;SDS011;62348;51.412;5.436;2023-09-18T14:41:32;4.65;;;2.15;;
73980;SDS011;62348;51.412;5.436;2023-09-18T14:43:58;7.60;;;2.28;;
73980;SDS011;62348;51.412;5.436;2023-09-18T14:46:24;2.50;;;1.77;;
73980;SDS011;62348;51.412;5.436;2023-09-18T14:48:49;4.93;;;1.88;;
73980;SDS011;62348;51.412;5.436;2023-09-18T14:51:15;3.22;;;2.03;;
73980;SDS011;62348;51.412;5.436;2023-09-18T14:53:40;2.65;;;1.83;;
73980;SDS011;62348;51.412;5.436;2023-09-18T14:56:06;3.35;;;1.67;;
73980;SDS011;62348;51.412;5.436;2023-09-18T14:58:31;2.92;;;1.70;;
73980;SDS011;62348;51.412;5.436;2023-09-18T15:00:57;2.13;;;1.85;;
73980;SDS011;62348;51.412;5.436;2023-09-18T15:03:22;3.38;;;1.52;;
73980;SDS011;62348;51.412;5.436;2023-09-18T15:05:51;4.90;;;1.80;;
73980;SDS011;62348;51.412;5.436;2023-09-18T15:08:17;4.35;;;2.03;;
73980;SDS011;62348;51.412;5.436;2023-09-18T15:10:44;4.60;;;2.05;;
73980;SDS011;62348;51.412;5.436;2023-09-18T15:13:10;4.72;;;1.85;;